Ralston, Wyoming
Current Conditions -  °F | °C
As of 4:15 AM on Thursday 18 Dec 2014 (Local Time) from KPOY Reporting Station
Clear Clear  
Wind Chill:   Ceiling: Unl
Heat Index: 18°   Visibility: 10mi
Dew Point: 14°   Wind: 13mph
Humidity: 86%   Direction: 120°ESE
Pressure: 29.93"   Gusts: NA
Location:  44.72°N, 108.87°W
Report Text: KPOY 181115Z AUTO 12011KT 10SM CLR M08/M10 A2993 RMK AO2
Loading
Personal Weather Stations






























Interactive Weather Map New forecast layout! Learn more

10-Day Weather Forecast

Advertisements
Track Severe Weather on mobile